Time;durP1;ratioP1;P1;durP2;ratioP2;P2;SDS_P1;SDS_P2;PMS_P1;PMS_P2;Temp;Humidity;BMP_temperature;BMP_pressure;BME280_temperature;BME280_humidity;BME280_pressure;Samples;Min_cycle;Max_cycle;Signal;HPM_P1;HPM_P2
2023/03/31 00:00:56;;;;;;;;;;;;;;;8.26;100.00;100027.88;5610054;31;34250;-67
2023/03/31 00:04:07;;;;;;;;;;;;;;;8.26;100.00;100021.75;5608987;31;34400;-67
2023/03/31 00:07:20;;;;;;;;;;;;;;;8.25;100.00;100010.34;5596414;31;34232;-67
2023/03/31 00:10:32;;;;;;;;;;;;;;;8.25;100.00;100017.47;5609496;31;34855;-67
2023/03/31 00:13:39;;;;;;;;;;;;;;;8.27;100.00;100020.78;5596403;31;34349;-67
2023/03/31 00:16:48;;;;;;;;;;;;;;;8.31;100.00;100022.12;5609480;31;34924;-67
2023/03/31 00:19:58;;;;;;;;;;;;;;;8.36;100.00;100009.25;5609499;31;34903;-67
2023/03/31 00:23:09;;;;;;;;;;;;;;;8.39;100.00;99994.88;5608714;31;34368;-67
2023/03/31 00:26:16;;;;;;;;;;;;;;;8.35;100.00;99999.66;5608568;31;33997;-67
2023/03/31 00:29:26;;;;;;;;;;;;;;;8.28;100.00;99996.81;5608287;31;34292;-67
2023/03/31 00:32:35;;;;;;;;;;;;;;;8.24;100.00;99992.00;5609389;31;34979;-67
2023/03/31 00:35:44;;;;;;;;;;;;;;;8.17;100.00;99997.12;5609331;31;34323;-67
2023/03/31 00:38:59;;;;;;;;;;;;;;;8.11;100.00;99996.94;5608545;31;34928;-67
2023/03/31 00:42:07;;;;;;;;;;;;;;;8.04;100.00;99991.47;5608643;31;35493;-67
2023/03/31 00:45:13;;;;;;;;;;;;;;;7.97;100.00;99985.19;5608539;31;33192;-67
2023/03/31 00:48:23;;;;;;;;;;;;;;;7.91;100.00;99977.91;5608517;31;34201;-66
2023/03/31 00:51:34;;;;;;;;;;;;;;;7.89;100.00;99982.50;5609210;31;34959;-67
2023/03/31 00:54:44;;;;;;;;;;;;;;;7.96;100.00;99977.41;5608501;31;34946;-67
2023/03/31 00:57:54;;;;;;;;;;;;;;;8.07;100.00;99980.59;5609056;31;34458;-67
2023/03/31 01:01:03;;;;;;;;;;;;;;;8.19;100.00;99981.94;5608353;31;34908;-67
2023/03/31 01:04:13;;;;;;;;;;;;;;;8.18;100.00;99982.91;5583146;31;33500;-67
2023/03/31 01:07:26;;;;;;;;;;;;;;;8.14;100.00;99978.94;5609028;31;34241;-67
2023/03/31 01:10:40;;;;;;;;;;;;;;;8.03;100.00;99970.50;5608196;31;34752;-67
2023/03/31 01:13:51;;;;;;;;;;;;;;;8.12;100.00;99966.91;5608867;31;34305;-67
2023/03/31 01:16:59;;;;;;;;;;;;;;;8.07;100.00;99972.66;5595062;31;34584;-67
2023/03/31 01:20:28;;;;;;;;;;;;;;;7.98;100.00;99963.06;5608958;31;34915;-68
2023/03/31 01:23:56;;;;;;;;;;;;;;;7.93;100.00;99961.91;5608147;31;34899;-68
2023/03/31 01:27:21;;;;;;;;;;;;;;;7.92;100.00;99966.34;5608873;31;34246;-67
2023/03/31 01:30:46;;;;;;;;;;;;;;;8.11;100.00;99971.34;5607785;31;35149;-67
2023/03/31 01:34:00;;;;;;;;;;;;;;;8.08;100.00;99970.84;5608019;31;34957;-68
2023/03/31 01:37:13;;;;;;;;;;;;;;;8.23;100.00;99964.75;5608014;31;34760;-67
2023/03/31 01:40:26;;;;;;;;;;;;;;;8.22;100.00;99968.41;5606604;31;33581;-67
2023/03/31 01:43:45;;;;;;;;;;;;;;;8.08;100.00;99971.69;5608620;31;34639;-67
2023/03/31 01:47:03;;;;;;;;;;;;;;;8.03;100.00;99973.16;5608385;31;34279;-67
2023/03/31 01:50:24;;;;;;;;;;;;;;;8.03;100.00;99974.00;5608253;31;34336;-68
2023/03/31 01:53:40;;;;;;;;;;;;;;;8.15;100.00;99977.97;5608232;31;34700;-68
2023/03/31 01:56:50;;;;;;;;;;;;;;;8.23;100.00;99970.03;5594719;31;34386;-67
2023/03/31 02:00:19;;;;;;;;;;;;;;;8.20;100.00;99969.56;5607873;31;34212;-68
2023/03/31 02:03:36;;;;;;;;;;;;;;;8.25;100.00;99969.87;5600715;31;34420;-68
2023/03/31 02:06:51;;;;;;;;;;;;;;;8.58;100.00;99965.47;5608148;31;33968;-68
2023/03/31 02:10:04;;;;;;;;;;;;;;;8.66;100.00;99962.87;5607166;31;34295;-68
2023/03/31 02:13:14;;;;;;;;;;;;;;;8.61;100.00;99963.34;5607851;31;33814;-69
2023/03/31 02:16:25;;;;;;;;;;;;;;;8.71;100.00;99960.56;5607988;31;34697;-68
2023/03/31 02:19:38;;;;;;;;;;;;;;;8.52;100.00;99968.81;5594038;31;34209;-67
2023/03/31 02:22:51;;;;;;;;;;;;;;;8.80;100.00;99959.56;5594747;31;34449;-68
2023/03/31 02:26:18;;;;;;;;;;;;;;;8.83;100.00;99955.72;5607094;31;34285;-68
2023/03/31 02:29:29;;;;;;;;;;;;;;;9.10;100.00;99953.53;5607699;31;34286;-68
2023/03/31 02:32:43;;;;;;;;;;;;;;;9.29;100.00;99949.72;5606988;31;34956;-68
2023/03/31 02:35:53;;;;;;;;;;;;;;;9.19;100.00;99949.06;5607507;31;34584;-68
2023/03/31 02:39:08;;;;;;;;;;;;;;;8.95;100.00;99955.25;5606775;31;34194;-68
2023/03/31 02:42:15;;;;;;;;;;;;;;;8.70;100.00;99948.31;5606790;31;33840;-68
2023/03/31 02:45:38;;;;;;;;;;;;;;;8.76;100.00;99944.19;5606764;31;34484;-68
2023/03/31 02:48:54;;;;;;;;;;;;;;;8.76;100.00;99945.00;5607385;31;34843;-68
2023/03/31 02:52:29;;;;;;;;;;;;;;;8.78;100.00;99940.34;5608118;31;33975;-68
2023/03/31 02:55:47;;;;;;;;;;;;;;;8.59;100.00;99932.78;5609233;31;33188;-68
2023/03/31 02:59:00;;;;;;;;;;;;;;;8.41;100.00;99938.22;5610260;31;34822;-68
2023/03/31 03:02:18;;;;;;;;;;;;;;;8.63;100.00;99940.22;5610548;31;34161;-67
2023/03/31 03:05:37;;;;;;;;;;;;;;;8.82;100.00;99931.09;5596545;31;33515;-68
2023/03/31 03:08:56;;;;;;;;;;;;;;;8.82;100.00;99936.38;5610012;31;34404;-68
2023/03/31 03:12:05;;;;;;;;;;;;;;;8.91;100.00;99940.66;5609991;31;33983;-68
2023/03/31 03:15:21;;;;;;;;;;;;;;;9.12;100.00;99938.31;5609254;31;34260;-68
2023/03/31 03:18:29;;;;;;;;;;;;;;;9.08;100.00;99938.84;5609187;31;34392;-68
2023/03/31 03:21:40;;;;;;;;;;;;;;;9.12;100.00;99940.13;5609318;31;34347;-68
2023/03/31 03:24:48;;;;;;;;;;;;;;;9.13;100.00;99937.34;5610004;31;35402;-67
2023/03/31 03:27:59;;;;;;;;;;;;;;;9.15;100.00;99935.31;5596970;31;34251;-67
2023/03/31 03:31:08;;;;;;;;;;;;;;;9.12;100.00;99937.50;5608993;31;35004;-68
2023/03/31 03:34:21;;;;;;;;;;;;;;;9.17;100.00;99940.47;5609519;31;34471;-68
2023/03/31 03:37:30;;;;;;;;;;;;;;;9.23;100.00;99936.31;5609127;31;34846;-69
2023/03/31 03:40:40;;;;;;;;;;;;;;;9.29;100.00;99933.00;5609727;31;35169;-67
2023/03/31 03:43:47;;;;;;;;;;;;;;;9.29;100.00;99936.47;5609037;31;34571;-68
2023/03/31 03:46:53;;;;;;;;;;;;;;;9.25;100.00;99948.37;5609416;31;34283;-67
2023/03/31 03:50:01;;;;;;;;;;;;;;;9.23;100.00;99944.25;5609867;31;34246;-68
2023/03/31 03:53:14;;;;;;;;;;;;;;;9.18;100.00;99944.75;5609556;31;34574;-68
2023/03/31 03:56:21;;;;;;;;;;;;;;;9.09;100.00;99943.13;5608604;31;33017;-68
2023/03/31 03:59:29;;;;;;;;;;;;;;;8.93;100.00;99945.81;5608928;31;34786;-68
2023/03/31 04:02:36;;;;;;;;;;;;;;;8.88;100.00;99956.06;5609018;31;34991;-68
2023/03/31 04:05:44;;;;;;;;;;;;;;;8.54;100.00;99959.72;5595796;31;34400;-68
2023/03/31 04:08:51;;;;;;;;;;;;;;;8.33;100.00;99954.06;5576960;31;990944;-68
2023/03/31 04:12:00;;;;;;;;;;;;;;;8.35;100.00;99951.28;5608518;31;34416;-68
2023/03/31 04:15:10;;;;;;;;;;;;;;;8.32;100.00;99952.44;5608507;31;33045;-68
2023/03/31 04:18:21;;;;;;;;;;;;;;;8.23;100.00;99942.78;5608576;31;34166;-68
2023/03/31 04:21:33;;;;;;;;;;;;;;;8.11;100.00;99937.00;5608728;31;34184;-68
2023/03/31 04:24:40;;;;;;;;;;;;;;;7.89;100.00;99936.81;5595784;31;34036;-67
2023/03/31 04:27:53;;;;;;;;;;;;;;;7.87;100.00;99926.38;5595556;31;33150;-69
2023/03/31 04:31:02;;;;;;;;;;;;;;;7.87;100.00;99932.50;5608850;31;34396;-68
2023/03/31 04:34:15;;;;;;;;;;;;;;;7.83;100.00;99940.91;5608607;31;34907;-69
2023/03/31 04:37:26;;;;;;;;;;;;;;;8.17;100.00;99931.09;5609352;31;34845;-68
2023/03/31 04:40:35;;;;;;;;;;;;;;;8.27;100.00;99931.75;5609212;31;34305;-68
2023/03/31 04:43:43;;;;;;;;;;;;;;;8.36;100.00;99923.84;5609228;31;34484;-69
2023/03/31 04:46:49;;;;;;;;;;;;;;;8.59;100.00;99916.91;5608525;31;34754;-69
2023/03/31 04:49:57;;;;;;;;;;;;;;;8.85;100.00;99922.84;5608264;31;33665;-69
2023/03/31 04:53:04;;;;;;;;;;;;;;;9.00;100.00;99915.88;5595660;31;33328;-69
2023/03/31 04:56:13;;;;;;;;;;;;;;;9.12;100.00;99922.44;5608336;31;33208;-68
2023/03/31 04:59:18;;;;;;;;;;;;;;;9.35;100.00;99924.34;5609125;31;34998;-68
2023/03/31 05:02:26;;;;;;;;;;;;;;;9.50;100.00;99923.47;5609083;31;34442;-68
2023/03/31 05:05:33;;;;;;;;;;;;;;;9.58;100.00;99914.69;5608997;31;35036;-67
2023/03/31 05:08:39;;;;;;;;;;;;;;;9.70;100.00;99920.41;5608246;31;32706;-69
2023/03/31 05:11:46;;;;;;;;;;;;;;;9.79;100.00;99914.88;5582225;31;34626;-68
2023/03/31 05:14:52;;;;;;;;;;;;;;;9.86;100.00;99920.31;5608074;31;34559;-68
2023/03/31 05:17:59;;;;;;;;;;;;;;;9.90;100.00;99914.50;5607285;31;35428;-67
2023/03/31 05:21:10;;;;;;;;;;;;;;;9.98;100.00;99916.25;5608570;31;34857;-68
2023/03/31 05:24:14;;;;;;;;;;;;;;;10.02;100.00;99909.63;5607944;31;35004;-69
2023/03/31 05:27:22;;;;;;;;;;;;;;;10.07;100.00;99906.47;5608083;31;34229;-69
2023/03/31 05:30:28;;;;;;;;;;;;;;;10.16;100.00;99902.78;5608966;31;34178;-68
2023/03/31 05:33:33;;;;;;;;;;;;;;;10.21;100.00;99901.25;5608540;31;34151;-69
2023/03/31 05:36:36;;;;;;;;;;;;;;;10.33;100.00;99904.28;5607689;31;33819;-69
2023/03/31 05:39:40;;;;;;;;;;;;;;;10.42;100.00;99911.19;5607914;31;34275;-68
2023/03/31 05:42:45;;;;;;;;;;;;;;;10.57;100.00;99912.06;5607630;31;34693;-69
2023/03/31 05:45:50;;;;;;;;;;;;;;;10.73;100.00;99905.78;5607093;31;34929;-69
2023/03/31 05:48:54;;;;;;;;;;;;;;;10.92;100.00;99907.09;5606926;31;34578;-68
2023/03/31 05:51:58;;;;;;;;;;;;;;;11.06;100.00;99901.78;5607885;31;34372;-69
2023/03/31 05:55:07;;;;;;;;;;;;;;;11.26;100.00;99902.06;5607424;31;34180;-69
2023/03/31 05:58:12;;;;;;;;;;;;;;;11.41;100.00;99897.59;5607604;31;34922;-69
2023/03/31 06:01:21;;;;;;;;;;;;;;;11.52;100.00;99894.44;5607624;31;34276;-69
2023/03/31 06:04:26;;;;;;;;;;;;;;;11.59;100.00;99892.69;5606906;31;34166;-68
2023/03/31 06:07:30;;;;;;;;;;;;;;;11.66;100.00;99896.28;5607705;31;34276;-68
2023/03/31 06:10:37;;;;;;;;;;;;;;;11.71;100.00;99901.03;5607654;31;34173;-67
2023/03/31 06:13:44;;;;;;;;;;;;;;;11.67;100.00;99894.41;5607335;31;34730;-67
2023/03/31 06:16:49;;;;;;;;;;;;;;;11.79;100.00;99898.28;5606603;31;34215;-67
2023/03/31 06:19:53;;;;;;;;;;;;;;;11.73;100.00;99897.19;5593821;31;34358;-68
2023/03/31 06:22:58;;;;;;;;;;;;;;;11.74;100.00;99892.69;5607689;31;33941;-68
2023/03/31 06:26:05;;;;;;;;;;;;;;;11.92;100.00;99887.78;5607170;31;34864;-68
2023/03/31 06:29:09;;;;;;;;;;;;;;;11.93;100.00;99888.59;5596271;31;34075;-68
2023/03/31 06:32:15;;;;;;;;;;;;;;;12.06;100.00;99894.87;5609549;31;34141;-67
2023/03/31 06:35:22;;;;;;;;;;;;;;;12.49;100.00;99885.03;5609858;31;34315;-68
2023/03/31 06:38:27;;;;;;;;;;;;;;;12.92;100.00;99893.78;5595885;31;34044;-68
2023/03/31 06:41:32;;;;;;;;;;;;;;;13.24;100.00;99888.88;5610021;31;34857;-68
2023/03/31 06:44:37;;;;;;;;;;;;;;;13.73;100.00;99888.69;5609287;31;34828;-68
2023/03/31 06:47:41;;;;;;;;;;;;;;;13.75;100.00;99887.44;5609884;31;35024;-67
2023/03/31 06:50:46;;;;;;;;;;;;;;;14.35;100.00;99891.91;5609987;31;34802;-67
2023/03/31 06:53:51;;;;;;;;;;;;;;;14.99;100.00;99885.97;5609203;31;34888;-68
2023/03/31 06:56:56;;;;;;;;;;;;;;;15.69;96.77;99887.00;5609335;31;33489;-68
2023/03/31 07:00:04;;;;;;;;;;;;;;;15.37;92.65;99888.75;5609605;31;34810;-68
2023/03/31 07:03:08;;;;;;;;;;;;;;;15.79;89.24;99887.34;5609826;31;34345;-70
2023/03/31 07:06:13;;;;;;;;;;;;;;;16.30;82.30;99884.59;5609107;31;33892;-68
2023/03/31 07:09:17;;;;;;;;;;;;;;;16.46;82.40;99881.38;5610124;31;34802;-68
2023/03/31 07:12:20;;;;;;;;;;;;;;;17.05;76.05;99880.03;5609347;31;34975;-69
2023/03/31 07:15:27;;;;;;;;;;;;;;;17.60;72.95;99877.41;5609806;31;34851;-69
2023/03/31 07:18:33;;;;;;;;;;;;;;;17.61;69.69;99885.22;5609853;31;34386;-69
2023/03/31 07:21:37;;;;;;;;;;;;;;;17.92;69.82;99872.63;5596179;31;35733;-69
2023/03/31 07:24:41;;;;;;;;;;;;;;;18.28;67.49;99877.06;5610231;31;34308;-69
2023/03/31 07:27:44;;;;;;;;;;;;;;;19.00;63.46;99875.88;5596057;31;34262;-69
2023/03/31 07:30:47;;;;;;;;;;;;;;;19.38;61.29;99872.69;5608624;31;34678;-69
2023/03/31 07:33:50;;;;;;;;;;;;;;;17.67;69.41;99873.56;5609641;31;34270;-68
2023/03/31 07:36:55;;;;;;;;;;;;;;;18.07;66.38;99867.66;5609613;31;34776;-68
2023/03/31 07:39:59;;;;;;;;;;;;;;;18.35;67.57;99861.69;5609049;31;35069;-68
2023/03/31 07:43:05;;;;;;;;;;;;;;;19.79;62.54;99860.91;5608899;31;33881;-68
2023/03/31 07:46:20;;;;;;;;;;;;;;;19.12;63.58;99856.00;5609746;31;34050;-68
2023/03/31 07:49:26;;;;;;;;;;;;;;;18.37;66.78;99848.84;5609705;31;34914;-68
2023/03/31 07:52:31;;;;;;;;;;;;;;;19.64;63.21;99856.03;5609568;31;34241;-68
2023/03/31 07:55:36;;;;;;;;;;;;;;;20.72;59.69;99845.00;5608923;31;34305;-68
2023/03/31 07:58:40;;;;;;;;;;;;;;;19.24;62.83;99831.78;5595589;31;34416;-67
2023/03/31 08:01:45;;;;;;;;;;;;;;;19.65;63.42;99838.84;5609594;31;34382;-68
2023/03/31 08:04:50;;;;;;;;;;;;;;;18.37;67.53;99840.78;5595427;31;34241;-68
2023/03/31 08:07:55;;;;;;;;;;;;;;;19.94;62.14;99839.66;5609519;31;34505;-68
2023/03/31 08:10:59;;;;;;;;;;;;;;;20.41;58.88;99837.50;5608536;31;34238;-67
2023/03/31 08:14:03;;;;;;;;;;;;;;;18.97;64.26;99836.03;5607892;31;34244;-67
2023/03/31 08:17:10;;;;;;;;;;;;;;;19.67;63.93;99828.63;5608708;31;34899;-68
2023/03/31 08:20:15;;;;;;;;;;;;;;;20.59;58.27;99821.09;5608235;31;34446;-69
2023/03/31 08:23:21;;;;;;;;;;;;;;;18.19;66.60;99815.66;5608674;31;34115;-68
2023/03/31 08:26:26;;;;;;;;;;;;;;;17.29;74.37;99814.00;5595280;31;33348;-67
2023/03/31 08:29:31;;;;;;;;;;;;;;;18.55;70.30;99797.72;5608564;31;34280;-68
2023/03/31 08:32:34;;;;;;;;;;;;;;;19.64;64.10;99804.91;5608497;31;34245;-68
2023/03/31 08:35:38;;;;;;;;;;;;;;;18.75;68.22;99795.50;5609368;31;34321;-68
2023/03/31 08:38:45;;;;;;;;;;;;;;;20.05;63.58;99781.38;5608363;31;34657;-70
2023/03/31 08:41:49;;;;;;;;;;;;;;;18.03;67.93;99775.22;5609238;31;34256;-68
2023/03/31 08:45:03;;;;;;;;;;;;;;;20.56;60.20;99777.66;5608948;31;34938;-67
2023/03/31 08:48:15;;;;;;;;;;;;;;;20.85;58.78;99767.53;5608799;31;34829;-68
2023/03/31 08:51:23;;;;;;;;;;;;;;;18.46;63.80;99756.13;5608685;31;34432;-68
2023/03/31 08:54:35;;;;;;;;;;;;;;;18.84;64.61;99758.31;5595013;31;34266;-68
2023/03/31 08:57:47;;;;;;;;;;;;;;;20.65;59.48;99755.41;5608961;31;34201;-68
2023/03/31 09:00:56;;;;;;;;;;;;;;;20.86;57.76;99748.44;5608966;31;33739;-68
2023/03/31 09:04:16;;;;;;;;;;;;;;;22.13;51.85;99739.78;5608080;31;34284;-68
2023/03/31 09:07:21;;;;;;;;;;;;;;;20.27;56.79;99734.63;5608801;31;34346;-69
2023/03/31 09:10:35;;;;;;;;;;;;;;;18.97;61.54;99732.03;5595275;31;33944;-68
2023/03/31 09:13:55;;;;;;;;;;;;;;;17.18;71.99;99727.13;5608502;31;34200;-68
2023/03/31 09:17:17;;;;;;;;;;;;;;;16.94;77.43;99717.34;5607799;31;35326;-68
2023/03/31 09:20:27;;;;;;;;;;;;;;;16.64;74.78;99711.09;5608478;31;35637;-68
2023/03/31 09:23:35;;;;;;;;;;;;;;;16.61;78.77;99715.03;5607425;31;34436;-68
2023/03/31 09:26:45;;;;;;;;;;;;;;;16.28;84.30;99698.47;5607824;31;35562;-68
2023/03/31 09:29:52;;;;;;;;;;;;;;;16.28;87.03;99698.47;5607821;31;34313;-67
2023/03/31 09:33:10;;;;;;;;;;;;;;;16.36;81.96;99696.31;5607423;31;34941;-66
2023/03/31 09:36:16;;;;;;;;;;;;;;;16.33;83.96;99695.94;5608393;31;34797;-68
2023/03/31 09:39:23;;;;;;;;;;;;;;;16.35;85.20;99689.34;5607831;31;34335;-68
2023/03/31 09:42:28;;;;;;;;;;;;;;;16.37;87.67;99691.78;5608605;31;34212;-68
2023/03/31 09:45:36;;;;;;;;;;;;;;;16.26;91.38;99681.81;5607660;31;34186;-67
2023/03/31 09:48:47;;;;;;;;;;;;;;;16.21;93.33;99674.47;5608404;31;34011;-68
2023/03/31 09:52:21;;;;;;;;;;;;;;;16.34;90.08;99670.81;5608159;31;34188;-67
2023/03/31 09:55:57;;;;;;;;;;;;;;;16.43;91.96;99664.94;5593113;31;34332;-68
2023/03/31 09:59:02;;;;;;;;;;;;;;;16.23;93.10;99664.34;5596067;31;34914;-68
2023/03/31 10:02:28;;;;;;;;;;;;;;;16.44;88.89;99653.19;5609093;31;34859;-68
2023/03/31 10:05:38;;;;;;;;;;;;;;;16.43;88.39;99650.75;5610638;31;34366;-68
2023/03/31 10:08:48;;;;;;;;;;;;;;;16.29;88.17;99646.56;5609975;31;33507;-68
2023/03/31 10:11:55;;;;;;;;;;;;;;;16.51;81.52;99637.88;5610546;31;34756;-68
2023/03/31 10:15:02;;;;;;;;;;;;;;;16.83;80.14;99632.38;5609641;31;35603;-67
2023/03/31 10:18:12;;;;;;;;;;;;;;;16.72;76.91;99627.75;5610598;31;34787;-69
2023/03/31 10:21:24;;;;;;;;;;;;;;;17.04;71.88;99621.13;5609547;31;34832;-68
2023/03/31 10:24:37;;;;;;;;;;;;;;;17.17;71.25;99615.59;5611027;31;34640;-68
2023/03/31 10:27:45;;;;;;;;;;;;;;;17.45;70.24;99617.63;5610590;31;34346;-67
2023/03/31 10:30:53;;;;;;;;;;;;;;;17.22;72.10;99613.06;5610201;31;34904;-67
2023/03/31 10:33:58;;;;;;;;;;;;;;;17.27;68.82;99601.62;5595984;31;33312;-68
2023/03/31 10:37:03;;;;;;;;;;;;;;;17.29;70.09;99607.56;5609724;31;33072;-68
2023/03/31 10:40:19;;;;;;;;;;;;;;;17.39;71.77;99611.31;5609633;31;34356;-67
2023/03/31 10:43:33;;;;;;;;;;;;;;;17.51;70.94;99600.62;5609314;31;34322;-67
2023/03/31 10:46:51;;;;;;;;;;;;;;;17.63;71.83;99597.97;5609452;31;34982;-67
2023/03/31 10:49:56;;;;;;;;;;;;;;;17.54;69.93;99593.97;5610261;31;34974;-66
2023/03/31 10:53:10;;;;;;;;;;;;;;;17.53;62.58;99585.09;5610116;31;34346;-69
2023/03/31 10:56:14;;;;;;;;;;;;;;;17.54;65.71;99585.94;5609440;31;34775;-66
2023/03/31 10:59:22;;;;;;;;;;;;;;;18.07;62.56;99583.97;5610169;31;35153;-66
2023/03/31 11:02:47;;;;;;;;;;;;;;;21.26;52.43;99586.25;5609746;31;34786;-67
2023/03/31 11:06:00;;;;;;;;;;;;;;;23.46;46.76;99587.84;5609154;31;33624;-68
2023/03/31 11:09:23;;;;;;;;;;;;;;;25.32;42.33;99575.44;5609221;31;33207;-67
2023/03/31 11:12:33;;;;;;;;;;;;;;;26.92;38.20;99581.34;5595468;31;33255;-68
2023/03/31 11:15:47;;;;;;;;;;;;;;;24.80;42.22;99567.13;5610211;31;34189;-68
2023/03/31 11:18:51;;;;;;;;;;;;;;;23.70;46.68;99570.75;5610275;31;34484;-68
2023/03/31 11:22:13;;;;;;;;;;;;;;;23.12;47.36;99568.56;5609691;31;33966;-69
2023/03/31 11:25:30;;;;;;;;;;;;;;;23.07;47.33;99566.69;5610193;31;33276;-67
2023/03/31 11:28:43;;;;;;;;;;;;;;;23.21;45.17;99556.12;5595406;31;33242;-66
2023/03/31 11:31:56;;;;;;;;;;;;;;;24.53;41.31;99540.44;5608923;31;34373;-67
2023/03/31 11:35:20;;;;;;;;;;;;;;;21.75;49.34;99532.91;5609114;31;33971;-68
2023/03/31 11:38:59;;;;;;;;;;;;;;;22.74;45.92;99524.72;5596200;31;33869;-70
2023/03/31 11:42:09;;;;;;;;;;;;;;;22.68;46.25;99508.72;5520963;31;34181;-68
2023/03/31 11:45:24;;;;;;;;;;;;;;;21.47;49.97;99480.09;5609061;31;34912;-69
2023/03/31 11:48:50;;;;;;;;;;;;;;;21.49;51.61;99471.75;5610027;31;33865;-68
2023/03/31 11:52:00;;;;;;;;;;;;;;;20.63;50.93;99457.56;5608915;31;34035;-68
2023/03/31 11:55:06;;;;;;;;;;;;;;;20.81;51.09;99466.13;5608643;31;34528;-68
2023/03/31 11:58:12;;;;;;;;;;;;;;;22.62;48.45;99456.50;5609839;31;34421;-69
2023/03/31 12:01:28;;;;;;;;;;;;;;;23.27;45.90;99449.50;5608230;31;34230;-67
2023/03/31 12:04:40;;;;;;;;;;;;;;;24.66;42.02;99458.44;5608407;31;33566;-68
2023/03/31 12:07:50;;;;;;;;;;;;;;;22.37;44.54;99456.47;5608712;31;34886;-69
2023/03/31 12:11:08;;;;;;;;;;;;;;;22.15;46.76;99443.19;5609347;31;33855;-68
2023/03/31 12:14:22;;;;;;;;;;;;;;;21.98;47.38;99437.16;5608634;31;33783;-68
2023/03/31 12:17:28;;;;;;;;;;;;;;;22.41;47.06;99425.94;5595699;31;33475;-67
2023/03/31 12:20:40;;;;;;;;;;;;;;;21.30;47.91;99433.56;5608993;31;34194;-67
2023/03/31 12:23:47;;;;;;;;;;;;;;;21.39;48.36;99423.94;5608640;31;34609;-67
2023/03/31 12:26:56;;;;;;;;;;;;;;;21.13;49.39;99419.41;5608263;31;34254;-68
2023/03/31 12:30:21;;;;;;;;;;;;;;;21.74;49.59;99415.19;5608884;31;34649;-67
2023/03/31 12:33:29;;;;;;;;;;;;;;;20.66;50.98;99403.97;5599346;31;34120;-68
2023/03/31 12:36:40;;;;;;;;;;;;;;;21.08;50.86;99406.72;5609324;31;34368;-68
2023/03/31 12:40:04;;;;;;;;;;;;;;;20.31;54.05;99401.78;5609407;31;34916;-68
2023/03/31 12:43:22;;;;;;;;;;;;;;;19.90;52.64;99389.72;5609532;31;34259;-68
2023/03/31 12:46:45;;;;;;;;;;;;;;;23.07;45.92;99388.12;5608413;31;33019;-68
2023/03/31 12:49:56;;;;;;;;;;;;;;;23.67;44.01;99384.44;5609443;31;34723;-69
2023/03/31 12:53:14;;;;;;;;;;;;;;;25.54;41.66;99382.19;5609443;31;34305;-70
2023/03/31 12:56:21;;;;;;;;;;;;;;;27.32;36.74;99374.84;5609305;31;34345;-68
2023/03/31 12:59:37;;;;;;;;;;;;;;;28.85;33.55;99371.19;5609246;31;34173;-69
2023/03/31 13:02:41;;;;;;;;;;;;;;;28.60;34.57;99358.16;5608467;31;34776;-70
2023/03/31 13:05:48;;;;;;;;;;;;;;;27.83;35.29;99361.84;5609305;31;34863;-67
2023/03/31 13:08:58;;;;;;;;;;;;;;;28.58;32.94;99369.37;5609189;31;35113;-67
2023/03/31 13:12:12;;;;;;;;;;;;;;;25.18;38.86;99357.31;5608921;31;34174;-70
2023/03/31 13:15:16;;;;;;;;;;;;;;;23.02;43.86;99360.25;5608925;31;34339;-68
2023/03/31 13:18:20;;;;;;;;;;;;;;;24.55;41.85;99338.37;5609061;31;34240;-68
2023/03/31 13:21:26;;;;;;;;;;;;;;;26.08;38.11;99326.59;5609423;31;35478;-68
2023/03/31 13:24:34;;;;;;;;;;;;;;;25.72;38.38;99318.94;5608177;31;34698;-69
2023/03/31 13:27:47;;;;;;;;;;;;;;;26.33;37.59;99310.72;5609196;31;34728;-68
2023/03/31 13:30:59;;;;;;;;;;;;;;;24.65;41.22;99303.03;5608218;31;34310;-68
2023/03/31 13:34:06;;;;;;;;;;;;;;;23.26;43.87;99285.50;5608729;31;34242;-68
2023/03/31 13:37:13;;;;;;;;;;;;;;;22.25;46.41;99286.50;5607557;31;34234;-70
2023/03/31 13:40:29;;;;;;;;;;;;;;;21.46;47.44;99286.06;5608627;31;34510;-68
2023/03/31 13:43:54;;;;;;;;;;;;;;;20.92;46.63;99270.16;5607621;31;34645;-68
2023/03/31 13:47:11;;;;;;;;;;;;;;;20.92;48.38;99253.19;5607448;31;34892;-68
2023/03/31 13:50:22;;;;;;;;;;;;;;;20.18;49.59;99255.94;5608311;31;34977;-68
2023/03/31 13:53:30;;;;;;;;;;;;;;;19.58;52.18;99256.97;5608349;31;35096;-68
2023/03/31 13:56:52;;;;;;;;;;;;;;;18.96;52.70;99233.13;5608492;31;34917;-68
2023/03/31 14:00:00;;;;;;;;;;;;;;;18.91;54.57;99232.25;5607421;31;33705;-68
2023/03/31 14:03:18;;;;;;;;;;;;;;;18.98;54.07;99224.78;5607905;31;34348;-69
2023/03/31 14:06:36;;;;;;;;;;;;;;;18.97;53.64;99226.69;5607445;31;34329;-68
2023/03/31 14:09:48;;;;;;;;;;;;;;;19.48;51.74;99241.56;5607841;31;34963;-68
2023/03/31 14:13:04;;;;;;;;;;;;;;;19.34;51.98;99232.22;5607055;31;34399;-68
2023/03/31 14:16:08;;;;;;;;;;;;;;;19.07;50.71;99221.41;5607715;31;34402;-68
2023/03/31 14:19:13;;;;;;;;;;;;;;;18.65;51.35;99212.28;5607087;31;34200;-67
2023/03/31 14:22:16;;;;;;;;;;;;;;;18.42;51.98;99199.03;5606854;31;33097;-69
2023/03/31 14:25:21;;;;;;;;;;;;;;;18.35;52.35;99188.47;5606919;31;34404;-68
2023/03/31 14:28:45;;;;;;;;;;;;;;;19.51;49.35;99187.22;5607522;31;34433;-68
2023/03/31 14:32:10;;;;;;;;;;;;;;;21.24;45.19;99170.28;5607760;31;34357;-69
2023/03/31 14:35:37;;;;;;;;;;;;;;;21.60;45.42;99160.34;5606800;31;34366;-69
2023/03/31 14:38:42;;;;;;;;;;;;;;;21.10;45.66;99161.88;5607893;31;34323;-69
2023/03/31 14:41:52;;;;;;;;;;;;;;;20.22;47.50;99143.91;5607512;31;34119;-69
2023/03/31 14:45:03;;;;;;;;;;;;;;;20.02;47.01;99143.78;5607337;31;35274;-69
2023/03/31 14:48:13;;;;;;;;;;;;;;;19.65;46.25;99157.25;5608290;31;34284;-68
2023/03/31 14:51:26;;;;;;;;;;;;;;;19.79;45.98;99140.41;5610254;31;34428;-69
2023/03/31 14:54:37;;;;;;;;;;;;;;;20.10;47.03;99132.53;5609884;31;34963;-69
2023/03/31 14:57:49;;;;;;;;;;;;;;;19.62;48.44;99130.81;5610222;31;34891;-69
2023/03/31 15:00:56;;;;;;;;;;;;;;;19.02;50.54;99126.50;5610418;31;33614;-69
2023/03/31 15:04:13;;;;;;;;;;;;;;;18.85;51.48;99126.56;5610308;31;34337;-69
2023/03/31 15:07:18;;;;;;;;;;;;;;;18.61;51.77;99130.56;5610223;31;34873;-69
2023/03/31 15:10:24;;;;;;;;;;;;;;;18.17;53.01;99135.06;5610247;31;34906;-68
2023/03/31 15:13:40;;;;;;;;;;;;;;;18.09;53.72;99122.06;5609756;31;34874;-69
2023/03/31 15:16:49;;;;;;;;;;;;;;;17.93;55.30;99120.22;5609692;31;35147;-68
2023/03/31 15:20:03;;;;;;;;;;;;;;;17.96;57.02;99120.53;5596668;31;33163;-68
2023/03/31 15:23:23;;;;;;;;;;;;;;;18.09;57.15;99119.38;5610109;31;34905;-68
2023/03/31 15:26:31;;;;;;;;;;;;;;;18.05;57.36;99113.72;5610054;31;34398;-68
2023/03/31 15:29:52;;;;;;;;;;;;;;;17.77;55.34;99113.81;5610019;31;34863;-68
2023/03/31 15:32:58;;;;;;;;;;;;;;;17.67;54.70;99119.03;5609439;31;34363;-67
2023/03/31 15:36:28;;;;;;;;;;;;;;;17.55;53.68;99097.62;5609547;31;34237;-68
2023/03/31 15:39:36;;;;;;;;;;;;;;;17.40;54.24;99086.66;5610066;31;34178;-69
2023/03/31 15:42:45;;;;;;;;;;;;;;;17.37;54.71;99079.09;5609864;31;35601;-68
2023/03/31 15:46:16;;;;;;;;;;;;;;;17.28;55.42;99085.91;5608587;31;33144;-68
2023/03/31 15:49:28;;;;;;;;;;;;;;;17.17;56.55;99076.88;5609784;31;34476;-68
2023/03/31 15:52:37;;;;;;;;;;;;;;;17.05;57.61;99084.16;5609264;31;34449;-68
2023/03/31 15:55:45;;;;;;;;;;;;;;;16.87;59.60;99068.31;5609844;31;34892;-69
2023/03/31 15:59:04;;;;;;;;;;;;;;;16.67;60.05;99060.69;5609137;31;34248;-69
2023/03/31 16:02:21;;;;;;;;;;;;;;;16.62;60.33;99055.25;5609222;31;34043;-68
2023/03/31 16:05:35;;;;;;;;;;;;;;;16.44;61.49;99047.38;5609870;31;34331;-68
2023/03/31 16:09:06;;;;;;;;;;;;;;;16.39;60.83;99053.44;5609064;31;34370;-68
2023/03/31 16:12:16;;;;;;;;;;;;;;;16.36;61.13;99061.94;5608803;31;34292;-69
2023/03/31 16:15:30;;;;;;;;;;;;;;;16.47;61.08;99055.72;5609092;31;34344;-69
2023/03/31 16:18:42;;;;;;;;;;;;;;;16.36;60.03;99048.53;5609719;31;34113;-68
2023/03/31 16:21:51;;;;;;;;;;;;;;;16.20;59.69;99049.31;5609624;31;34443;-68
2023/03/31 16:25:00;;;;;;;;;;;;;;;16.02;60.26;99046.78;5609389;31;34906;-68
2023/03/31 16:28:13;;;;;;;;;;;;;;;15.84;61.90;99037.03;5608906;31;33837;-68
2023/03/31 16:31:34;;;;;;;;;;;;;;;15.71;61.92;99042.63;5608576;31;33518;-67